Collins, Arkansas
Current Conditions -  °F | °C
As of 3:53 AM on Saturday 22 Nov 2014 (Local Time) from KLLQ Reporting Station
Broken Clouds Broken Clouds  
Wind Chill: 56°   Ceiling: 8000
Heat Index: 56°   Visibility: 10mi
Dew Point: 49°   Wind: 6mph
Humidity: 77%   Direction: 160°SSE
Pressure: 30.24"   Gusts: NA
Location:  33.4898°N, 91.4556°W
Report Text: KLLQ 220953Z AUTO 16005KT 10SM FEW055 BKN080 13/09 A3024 RMK AO2 SLP237 T01330094
Loading
Personal Weather Stations






























Interactive Weather Map New forecast layout! Learn more

10-Day Weather Forecast

Advertisements
Track Severe Weather on mobile